sensor_id;sensor_type;location;lat;lon;timestamp;temperature;humidity
84173;DHT22;74302;40.122;18.310;2024-01-25T00:00:59;11.10;58.40
84173;DHT22;74302;40.122;18.310;2024-01-25T00:02:45;11.00;58.40
84173;DHT22;74302;40.122;18.310;2024-01-25T00:04:28;11.00;58.50
84173;DHT22;74302;40.122;18.310;2024-01-25T00:06:12;11.00;58.50
84173;DHT22;74302;40.122;18.310;2024-01-25T00:07:55;11.00;58.50
84173;DHT22;74302;40.122;18.310;2024-01-25T00:09:39;11.00;58.50
84173;DHT22;74302;40.122;18.310;2024-01-25T00:12:03;11.00;58.50
84173;DHT22;74302;40.122;18.310;2024-01-25T00:15:14;11.00;58.50
84173;DHT22;74302;40.122;18.310;2024-01-25T00:17:59;10.90;58.50
84173;DHT22;74302;40.122;18.310;2024-01-25T00:19:45;10.90;58.30
84173;DHT22;74302;40.122;18.310;2024-01-25T00:21:29;10.90;58.30
84173;DHT22;74302;40.122;18.310;2024-01-25T00:23:12;10.90;58.40
84173;DHT22;74302;40.122;18.310;2024-01-25T00:24:57;10.90;58.50
84173;DHT22;74302;40.122;18.310;2024-01-25T00:26:40;10.80;58.40
84173;DHT22;74302;40.122;18.310;2024-01-25T00:28:25;10.70;58.40
84173;DHT22;74302;40.122;18.310;2024-01-25T00:30:10;10.80;58.50
84173;DHT22;74302;40.122;18.310;2024-01-25T00:31:53;10.70;58.60
84173;DHT22;74302;40.122;18.310;2024-01-25T00:33:38;10.70;58.60
84173;DHT22;74302;40.122;18.310;2024-01-25T00:35:23;10.70;58.60
84173;DHT22;74302;40.122;18.310;2024-01-25T00:37:07;10.70;58.60
84173;DHT22;74302;40.122;18.310;2024-01-25T00:38:53;10.70;58.60
84173;DHT22;74302;40.122;18.310;2024-01-25T00:41:12;10.80;58.70
84173;DHT22;74302;40.122;18.310;2024-01-25T00:44:34;10.80;58.70
84173;DHT22;74302;40.122;18.310;2024-01-25T00:47:33;10.70;58.50
84173;DHT22;74302;40.122;18.310;2024-01-25T00:49:42;10.70;58.50
84173;DHT22;74302;40.122;18.310;2024-01-25T00:51:27;10.60;58.50
84173;DHT22;74302;40.122;18.310;2024-01-25T00:53:11;10.60;58.60
84173;DHT22;74302;40.122;18.310;2024-01-25T00:54:56;10.60;58.60
84173;DHT22;74302;40.122;18.310;2024-01-25T00:56:39;10.60;58.70
84173;DHT22;74302;40.122;18.310;2024-01-25T00:58:24;10.60;58.70
84173;DHT22;74302;40.122;18.310;2024-01-25T01:00:09;10.60;58.70
84173;DHT22;74302;40.122;18.310;2024-01-25T01:01:52;10.60;58.70
84173;DHT22;74302;40.122;18.310;2024-01-25T01:03:37;10.60;58.60
84173;DHT22;74302;40.122;18.310;2024-01-25T01:05:23;10.60;58.60
84173;DHT22;74302;40.122;18.310;2024-01-25T01:07:09;10.50;58.60
84173;DHT22;74302;40.122;18.310;2024-01-25T01:08:53;10.50;58.70
84173;DHT22;74302;40.122;18.310;2024-01-25T01:10:38;10.50;58.80
84173;DHT22;74302;40.122;18.310;2024-01-25T01:12:37;10.40;58.80
84173;DHT22;74302;40.122;18.310;2024-01-25T01:15:57;10.50;58.90
84173;DHT22;74302;40.122;18.310;2024-01-25T01:19:02;10.40;58.80
84173;DHT22;74302;40.122;18.310;2024-01-25T01:20:49;10.40;58.90
84173;DHT22;74302;40.122;18.310;2024-01-25T01:22:33;10.30;58.90
84173;DHT22;74302;40.122;18.310;2024-01-25T01:24:17;10.30;58.90
84173;DHT22;74302;40.122;18.310;2024-01-25T01:26:00;10.30;59.00
84173;DHT22;74302;40.122;18.310;2024-01-25T01:27:44;10.30;59.00
84173;DHT22;74302;40.122;18.310;2024-01-25T01:29:28;10.30;59.00
84173;DHT22;74302;40.122;18.310;2024-01-25T01:31:12;10.30;58.90
84173;DHT22;74302;40.122;18.310;2024-01-25T01:32:55;10.30;58.90
84173;DHT22;74302;40.122;18.310;2024-01-25T01:34:41;10.30;59.00
84173;DHT22;74302;40.122;18.310;2024-01-25T01:36:24;10.30;59.00
84173;DHT22;74302;40.122;18.310;2024-01-25T01:38:09;10.30;59.00
84173;DHT22;74302;40.122;18.310;2024-01-25T01:39:53;10.30;59.00
84173;DHT22;74302;40.122;18.310;2024-01-25T01:42:00;10.30;59.00
84173;DHT22;74302;40.122;18.310;2024-01-25T01:44:54;10.20;59.00
84173;DHT22;74302;40.122;18.310;2024-01-25T01:47:22;10.20;59.00
84173;DHT22;74302;40.122;18.310;2024-01-25T01:50:07;10.20;59.00
84173;DHT22;74302;40.122;18.310;2024-01-25T01:51:52;10.10;59.00
84173;DHT22;74302;40.122;18.310;2024-01-25T01:53:36;10.10;59.00
84173;DHT22;74302;40.122;18.310;2024-01-25T01:55:21;10.10;59.00
84173;DHT22;74302;40.122;18.310;2024-01-25T01:57:07;10.10;59.00
84173;DHT22;74302;40.122;18.310;2024-01-25T01:58:51;10.10;59.10
84173;DHT22;74302;40.122;18.310;2024-01-25T02:00:37;10.10;59.00
84173;DHT22;74302;40.122;18.310;2024-01-25T02:02:22;10.10;59.00
84173;DHT22;74302;40.122;18.310;2024-01-25T02:04:06;10.10;59.00
84173;DHT22;74302;40.122;18.310;2024-01-25T02:05:52;10.10;59.00
84173;DHT22;74302;40.122;18.310;2024-01-25T02:07:35;10.10;59.00
84173;DHT22;74302;40.122;18.310;2024-01-25T02:09:22;10.10;59.00
84173;DHT22;74302;40.122;18.310;2024-01-25T02:11:04;10.10;59.00
84173;DHT22;74302;40.122;18.310;2024-01-25T02:13:10;10.10;59.00
84173;DHT22;74302;40.122;18.310;2024-01-25T02:16:03;10.10;59.00
84173;DHT22;74302;40.122;18.310;2024-01-25T02:19:14;10.10;59.00
84173;DHT22;74302;40.122;18.310;2024-01-25T02:21:33;9.90;59.00
84173;DHT22;74302;40.122;18.310;2024-01-25T02:23:18;9.90;59.00
84173;DHT22;74302;40.122;18.310;2024-01-25T02:25:02;9.90;59.00
84173;DHT22;74302;40.122;18.310;2024-01-25T02:26:46;9.80;59.10
84173;DHT22;74302;40.122;18.310;2024-01-25T02:28:29;9.80;59.10
84173;DHT22;74302;40.122;18.310;2024-01-25T02:30:13;9.80;59.20
84173;DHT22;74302;40.122;18.310;2024-01-25T02:31:56;9.80;59.20
84173;DHT22;74302;40.122;18.310;2024-01-25T02:33:40;9.80;59.10
84173;DHT22;74302;40.122;18.310;2024-01-25T02:35:25;9.70;59.10
84173;DHT22;74302;40.122;18.310;2024-01-25T02:37:09;9.70;59.20
84173;DHT22;74302;40.122;18.310;2024-01-25T02:38:55;9.60;59.30
84173;DHT22;74302;40.122;18.310;2024-01-25T02:40:39;9.60;59.30
84173;DHT22;74302;40.122;18.310;2024-01-25T02:42:22;9.50;59.40
84173;DHT22;74302;40.122;18.310;2024-01-25T02:44:19;9.50;59.50
84173;DHT22;74302;40.122;18.310;2024-01-25T02:47:38;9.50;59.50
84173;DHT22;74302;40.122;18.310;2024-01-25T02:50:23;9.50;59.40
84173;DHT22;74302;40.122;18.310;2024-01-25T02:52:07;9.50;59.40
84173;DHT22;74302;40.122;18.310;2024-01-25T02:53:51;9.50;59.40
84173;DHT22;74302;40.122;18.310;2024-01-25T02:55:34;9.50;59.30
84173;DHT22;74302;40.122;18.310;2024-01-25T02:57:18;9.50;59.30
84173;DHT22;74302;40.122;18.310;2024-01-25T02:59:02;9.40;59.30
84173;DHT22;74302;40.122;18.310;2024-01-25T03:00:46;9.40;59.40
84173;DHT22;74302;40.122;18.310;2024-01-25T03:02:30;9.40;59.40
84173;DHT22;74302;40.122;18.310;2024-01-25T03:04:14;9.40;59.40
84173;DHT22;74302;40.122;18.310;2024-01-25T03:06:00;9.40;59.40
84173;DHT22;74302;40.122;18.310;2024-01-25T03:07:44;9.40;59.40
84173;DHT22;74302;40.122;18.310;2024-01-25T03:09:28;9.40;59.40
84173;DHT22;74302;40.122;18.310;2024-01-25T03:11:12;9.40;59.50
84173;DHT22;74302;40.122;18.310;2024-01-25T03:12:55;9.40;59.50
84173;DHT22;74302;40.122;18.310;2024-01-25T03:14:39;9.40;59.50
84173;DHT22;74302;40.122;18.310;2024-01-25T03:16:23;9.40;59.50
84173;DHT22;74302;40.122;18.310;2024-01-25T03:18:07;9.40;59.50
84173;DHT22;74302;40.122;18.310;2024-01-25T03:19:51;9.30;59.50
84173;DHT22;74302;40.122;18.310;2024-01-25T03:21:35;9.40;59.50
84173;DHT22;74302;40.122;18.310;2024-01-25T03:23:19;9.40;59.50
84173;DHT22;74302;40.122;18.310;2024-01-25T03:25:03;9.40;59.40
84173;DHT22;74302;40.122;18.310;2024-01-25T03:26:47;9.40;59.40
84173;DHT22;74302;40.122;18.310;2024-01-25T03:28:34;9.30;59.40
84173;DHT22;74302;40.122;18.310;2024-01-25T03:30:17;9.40;59.50
84173;DHT22;74302;40.122;18.310;2024-01-25T03:32:02;9.40;59.40
84173;DHT22;74302;40.122;18.310;2024-01-25T03:33:46;9.40;59.50
84173;DHT22;74302;40.122;18.310;2024-01-25T03:35:30;9.30;59.40
84173;DHT22;74302;40.122;18.310;2024-01-25T03:37:15;9.40;59.40
84173;DHT22;74302;40.122;18.310;2024-01-25T03:38:59;9.30;59.40
84173;DHT22;74302;40.122;18.310;2024-01-25T03:40:43;9.40;59.40
84173;DHT22;74302;40.122;18.310;2024-01-25T03:42:27;9.40;59.40
84173;DHT22;74302;40.122;18.310;2024-01-25T03:44:11;9.40;59.40
84173;DHT22;74302;40.122;18.310;2024-01-25T03:45:54;9.30;59.40
84173;DHT22;74302;40.122;18.310;2024-01-25T03:47:38;9.30;59.40
84173;DHT22;74302;40.122;18.310;2024-01-25T03:49:21;9.30;59.40
84173;DHT22;74302;40.122;18.310;2024-01-25T03:51:06;9.40;59.40
84173;DHT22;74302;40.122;18.310;2024-01-25T03:53:37;9.30;59.40
84173;DHT22;74302;40.122;18.310;2024-01-25T03:57:11;9.40;59.40
84173;DHT22;74302;40.122;18.310;2024-01-25T03:59:34;9.20;59.30
84173;DHT22;74302;40.122;18.310;2024-01-25T04:01:18;9.20;59.30
84173;DHT22;74302;40.122;18.310;2024-01-25T04:03:01;9.10;59.40
84173;DHT22;74302;40.122;18.310;2024-01-25T04:04:45;9.10;59.40
84173;DHT22;74302;40.122;18.310;2024-01-25T04:06:29;9.10;59.50
84173;DHT22;74302;40.122;18.310;2024-01-25T04:08:14;9.10;59.50
84173;DHT22;74302;40.122;18.310;2024-01-25T04:09:58;9.10;59.50
84173;DHT22;74302;40.122;18.310;2024-01-25T04:11:43;9.10;59.50
84173;DHT22;74302;40.122;18.310;2024-01-25T04:13:27;9.10;59.40
84173;DHT22;74302;40.122;18.310;2024-01-25T04:15:11;9.10;59.40
84173;DHT22;74302;40.122;18.310;2024-01-25T04:16:55;9.10;59.40
84173;DHT22;74302;40.122;18.310;2024-01-25T04:18:38;9.10;59.40
84173;DHT22;74302;40.122;18.310;2024-01-25T04:20:22;9.10;59.50
84173;DHT22;74302;40.122;18.310;2024-01-25T04:22:06;9.10;59.40
84173;DHT22;74302;40.122;18.310;2024-01-25T04:23:52;9.00;59.40
84173;DHT22;74302;40.122;18.310;2024-01-25T04:26:10;9.00;59.50
84173;DHT22;74302;40.122;18.310;2024-01-25T04:29:02;9.00;59.50
84173;DHT22;74302;40.122;18.310;2024-01-25T04:31:42;9.00;59.50
84173;DHT22;74302;40.122;18.310;2024-01-25T04:33:27;8.90;59.50
84173;DHT22;74302;40.122;18.310;2024-01-25T04:35:10;8.90;59.50
84173;DHT22;74302;40.122;18.310;2024-01-25T04:36:54;8.90;59.50
84173;DHT22;74302;40.122;18.310;2024-01-25T04:45:21;8.80;59.50
84173;DHT22;74302;40.122;18.310;2024-01-25T04:47:05;8.70;59.60
84173;DHT22;74302;40.122;18.310;2024-01-25T04:48:50;8.70;59.60
84173;DHT22;74302;40.122;18.310;2024-01-25T04:50:33;8.70;59.60
84173;DHT22;74302;40.122;18.310;2024-01-25T04:52:17;8.70;59.60
84173;DHT22;74302;40.122;18.310;2024-01-25T04:54:01;8.70;59.70
84173;DHT22;74302;40.122;18.310;2024-01-25T04:55:45;8.70;59.70
84173;DHT22;74302;40.122;18.310;2024-01-25T04:57:29;8.70;59.60
84173;DHT22;74302;40.122;18.310;2024-01-25T04:59:13;8.70;59.60
84173;DHT22;74302;40.122;18.310;2024-01-25T05:00:59;8.70;59.60
84173;DHT22;74302;40.122;18.310;2024-01-25T05:02:43;8.70;59.60
84173;DHT22;74302;40.122;18.310;2024-01-25T05:04:28;8.60;59.60
84173;DHT22;74302;40.122;18.310;2024-01-25T05:06:14;8.60;59.70
84173;DHT22;74302;40.122;18.310;2024-01-25T05:08:19;8.60;59.70
84173;DHT22;74302;40.122;18.310;2024-01-25T05:11:15;8.70;59.70
84173;DHT22;74302;40.122;18.310;2024-01-25T05:14:17;8.60;59.70
84173;DHT22;74302;40.122;18.310;2024-01-25T05:17:02;8.70;59.70
84173;DHT22;74302;40.122;18.310;2024-01-25T05:18:46;8.60;59.60
84173;DHT22;74302;40.122;18.310;2024-01-25T05:20:31;8.60;59.60
84173;DHT22;74302;40.122;18.310;2024-01-25T05:22:16;8.60;59.60
84173;DHT22;74302;40.122;18.310;2024-01-25T05:24:00;8.60;59.70
84173;DHT22;74302;40.122;18.310;2024-01-25T05:25:44;8.60;59.70
84173;DHT22;74302;40.122;18.310;2024-01-25T05:27:27;8.60;59.70
84173;DHT22;74302;40.122;18.310;2024-01-25T05:29:11;8.60;59.80
84173;DHT22;74302;40.122;18.310;2024-01-25T05:30:54;8.60;59.80
84173;DHT22;74302;40.122;18.310;2024-01-25T05:32:39;8.60;59.80
84173;DHT22;74302;40.122;18.310;2024-01-25T05:34:24;8.60;59.80
84173;DHT22;74302;40.122;18.310;2024-01-25T05:36:07;8.50;59.80
84173;DHT22;74302;40.122;18.310;2024-01-25T05:37:52;8.50;59.80
84173;DHT22;74302;40.122;18.310;2024-01-25T05:40:16;8.50;59.80
84173;DHT22;74302;40.122;18.310;2024-01-25T05:42:45;8.50;59.80
84173;DHT22;74302;40.122;18.310;2024-01-25T05:45:30;8.40;59.90
84173;DHT22;74302;40.122;18.310;2024-01-25T05:48:01;8.40;59.80
84173;DHT22;74302;40.122;18.310;2024-01-25T05:49:45;8.30;59.80
84173;DHT22;74302;40.122;18.310;2024-01-25T05:51:28;8.30;59.90
84173;DHT22;74302;40.122;18.310;2024-01-25T05:53:13;8.30;59.90
84173;DHT22;74302;40.122;18.310;2024-01-25T05:54:56;8.40;59.90
84173;DHT22;74302;40.122;18.310;2024-01-25T05:56:41;8.40;59.80
84173;DHT22;74302;40.122;18.310;2024-01-25T05:58:25;8.40;59.80
84173;DHT22;74302;40.122;18.310;2024-01-25T06:00:11;8.40;59.80
84173;DHT22;74302;40.122;18.310;2024-01-25T06:01:56;8.40;59.80
84173;DHT22;74302;40.122;18.310;2024-01-25T06:03:40;8.40;59.70
84173;DHT22;74302;40.122;18.310;2024-01-25T06:05:25;8.40;59.70
84173;DHT22;74302;40.122;18.310;2024-01-25T06:07:09;8.40;59.70
84173;DHT22;74302;40.122;18.310;2024-01-25T06:08:53;8.40;59.70
84173;DHT22;74302;40.122;18.310;2024-01-25T06:10:40;8.40;59.70
84173;DHT22;74302;40.122;18.310;2024-01-25T06:12:24;8.40;59.70
84173;DHT22;74302;40.122;18.310;2024-01-25T06:14:09;8.40;59.70
84173;DHT22;74302;40.122;18.310;2024-01-25T06:15:52;8.50;59.70
84173;DHT22;74302;40.122;18.310;2024-01-25T06:17:36;8.50;59.70
84173;DHT22;74302;40.122;18.310;2024-01-25T06:19:21;8.50;59.70
84173;DHT22;74302;40.122;18.310;2024-01-25T06:21:06;8.60;59.70
84173;DHT22;74302;40.122;18.310;2024-01-25T06:22:50;8.60;59.70
84173;DHT22;74302;40.122;18.310;2024-01-25T06:24:34;8.60;59.60
84173;DHT22;74302;40.122;18.310;2024-01-25T06:26:17;8.70;59.60
84173;DHT22;74302;40.122;18.310;2024-01-25T06:28:01;8.70;59.50
84173;DHT22;74302;40.122;18.310;2024-01-25T06:29:46;8.80;59.40
84173;DHT22;74302;40.122;18.310;2024-01-25T06:31:29;8.90;59.30
84173;DHT22;74302;40.122;18.310;2024-01-25T06:33:14;9.00;59.30
84173;DHT22;74302;40.122;18.310;2024-01-25T06:34:59;9.10;59.20
84173;DHT22;74302;40.122;18.310;2024-01-25T06:36:43;9.10;59.10
84173;DHT22;74302;40.122;18.310;2024-01-25T06:38:26;9.20;59.10
84173;DHT22;74302;40.122;18.310;2024-01-25T06:40:11;9.30;59.00
84173;DHT22;74302;40.122;18.310;2024-01-25T06:41:54;9.50;58.90
84173;DHT22;74302;40.122;18.310;2024-01-25T06:43:39;9.60;58.70
84173;DHT22;74302;40.122;18.310;2024-01-25T06:45:22;9.80;58.60
84173;DHT22;74302;40.122;18.310;2024-01-25T06:47:07;10.10;58.30
84173;DHT22;74302;40.122;18.310;2024-01-25T06:48:51;10.20;58.10
84173;DHT22;74302;40.122;18.310;2024-01-25T06:50:36;10.40;57.90
84173;DHT22;74302;40.122;18.310;2024-01-25T06:52:21;10.60;57.80
84173;DHT22;74302;40.122;18.310;2024-01-25T06:54:05;10.80;57.60
84173;DHT22;74302;40.122;18.310;2024-01-25T06:55:48;11.10;57.40
84173;DHT22;74302;40.122;18.310;2024-01-25T06:57:32;11.30;57.20
84173;DHT22;74302;40.122;18.310;2024-01-25T06:59:15;11.50;56.90
84173;DHT22;74302;40.122;18.310;2024-01-25T07:01:00;11.70;56.70
84173;DHT22;74302;40.122;18.310;2024-01-25T07:02:43;11.90;56.50
84173;DHT22;74302;40.122;18.310;2024-01-25T07:04:27;12.20;56.30
84173;DHT22;74302;40.122;18.310;2024-01-25T07:06:12;12.40;56.10
84173;DHT22;74302;40.122;18.310;2024-01-25T07:07:56;12.70;55.80
84173;DHT22;74302;40.122;18.310;2024-01-25T07:09:40;12.90;55.60
84173;DHT22;74302;40.122;18.310;2024-01-25T07:11:23;13.20;55.60
84173;DHT22;74302;40.122;18.310;2024-01-25T07:13:07;13.50;55.20
84173;DHT22;74302;40.122;18.310;2024-01-25T07:14:50;13.90;55.20
84173;DHT22;74302;40.122;18.310;2024-01-25T07:16:34;14.50;54.60
84173;DHT22;74302;40.122;18.310;2024-01-25T07:18:17;15.20;53.80
84173;DHT22;74302;40.122;18.310;2024-01-25T07:20:02;16.00;52.80
84173;DHT22;74302;40.122;18.310;2024-01-25T07:21:48;16.70;51.70
84173;DHT22;74302;40.122;18.310;2024-01-25T07:23:33;17.20;51.00
84173;DHT22;74302;40.122;18.310;2024-01-25T07:25:16;17.70;50.70
84173;DHT22;74302;40.122;18.310;2024-01-25T07:27:00;17.80;50.70
84173;DHT22;74302;40.122;18.310;2024-01-25T07:28:44;18.20;50.50
84173;DHT22;74302;40.122;18.310;2024-01-25T07:30:28;18.80;50.40
84173;DHT22;74302;40.122;18.310;2024-01-25T07:32:13;19.70;50.30
84173;DHT22;74302;40.122;18.310;2024-01-25T07:33:56;20.80;48.80
84173;DHT22;74302;40.122;18.310;2024-01-25T07:35:40;22.10;47.70
84173;DHT22;74302;40.122;18.310;2024-01-25T07:37:29;23.50;46.70
84173;DHT22;74302;40.122;18.310;2024-01-25T07:39:13;24.90;44.70
84173;DHT22;74302;40.122;18.310;2024-01-25T07:40:56;26.10;43.60
84173;DHT22;74302;40.122;18.310;2024-01-25T07:42:41;27.10;42.80
84173;DHT22;74302;40.122;18.310;2024-01-25T07:44:25;28.00;42.00
84173;DHT22;74302;40.122;18.310;2024-01-25T07:46:10;28.80;41.70
84173;DHT22;74302;40.122;18.310;2024-01-25T07:47:57;29.60;40.70
84173;DHT22;74302;40.122;18.310;2024-01-25T07:49:42;30.00;40.40
84173;DHT22;74302;40.122;18.310;2024-01-25T07:51:26;30.50;40.10
84173;DHT22;74302;40.122;18.310;2024-01-25T07:53:12;31.00;39.90
84173;DHT22;74302;40.122;18.310;2024-01-25T07:54:58;31.60;39.60
84173;DHT22;74302;40.122;18.310;2024-01-25T07:56:44;32.10;39.30
84173;DHT22;74302;40.122;18.310;2024-01-25T07:58:28;32.50;38.90
84173;DHT22;74302;40.122;18.310;2024-01-25T08:00:14;32.80;38.70
84173;DHT22;74302;40.122;18.310;2024-01-25T08:01:57;33.20;38.50
84173;DHT22;74302;40.122;18.310;2024-01-25T08:03:41;33.50;38.40
84173;DHT22;74302;40.122;18.310;2024-01-25T08:05:25;33.80;38.30
84173;DHT22;74302;40.122;18.310;2024-01-25T08:07:12;33.90;38.20
84173;DHT22;74302;40.122;18.310;2024-01-25T08:08:57;34.20;38.10
84173;DHT22;74302;40.122;18.310;2024-01-25T08:10:41;34.30;38.00
84173;DHT22;74302;40.122;18.310;2024-01-25T08:12:24;34.20;38.10
84173;DHT22;74302;40.122;18.310;2024-01-25T08:14:08;33.90;38.10
84173;DHT22;74302;40.122;18.310;2024-01-25T08:15:53;33.60;38.10
84173;DHT22;74302;40.122;18.310;2024-01-25T08:17:37;32.90;38.40
84173;DHT22;74302;40.122;18.310;2024-01-25T08:19:21;31.70;39.30
84173;DHT22;74302;40.122;18.310;2024-01-25T08:21:05;30.30;40.40
84173;DHT22;74302;40.122;18.310;2024-01-25T08:22:48;28.80;41.80
84173;DHT22;74302;40.122;18.310;2024-01-25T08:24:34;27.60;43.20
84173;DHT22;74302;40.122;18.310;2024-01-25T08:26:18;26.30;44.40
84173;DHT22;74302;40.122;18.310;2024-01-25T08:28:03;25.30;45.50
84173;DHT22;74302;40.122;18.310;2024-01-25T08:29:46;24.40;46.50
84173;DHT22;74302;40.122;18.310;2024-01-25T08:31:30;23.70;47.30
84173;DHT22;74302;40.122;18.310;2024-01-25T08:33:13;23.00;47.90
84173;DHT22;74302;40.122;18.310;2024-01-25T08:34:57;22.50;48.70
84173;DHT22;74302;40.122;18.310;2024-01-25T08:36:42;21.90;49.20
84173;DHT22;74302;40.122;18.310;2024-01-25T08:38:26;21.50;49.70
84173;DHT22;74302;40.122;18.310;2024-01-25T08:40:11;21.20;49.90
84173;DHT22;74302;40.122;18.310;2024-01-25T08:41:56;21.00;50.30
84173;DHT22;74302;40.122;18.310;2024-01-25T08:43:43;20.70;50.50
84173;DHT22;74302;40.122;18.310;2024-01-25T08:45:27;20.50;50.70
84173;DHT22;74302;40.122;18.310;2024-01-25T08:47:11;20.40;50.80
84173;DHT22;74302;40.122;18.310;2024-01-25T08:48:55;20.20;50.90
84173;DHT22;74302;40.122;18.310;2024-01-25T08:50:38;20.20;51.00
84173;DHT22;74302;40.122;18.310;2024-01-25T08:52:22;20.10;51.10
84173;DHT22;74302;40.122;18.310;2024-01-25T08:54:05;20.00;51.10
84173;DHT22;74302;40.122;18.310;2024-01-25T08:55:50;19.90;51.10
84173;DHT22;74302;40.122;18.310;2024-01-25T08:57:33;19.90;51.10
84173;DHT22;74302;40.122;18.310;2024-01-25T08:59:18;19.80;51.10
84173;DHT22;74302;40.122;18.310;2024-01-25T09:01:01;19.70;51.20
84173;DHT22;74302;40.122;18.310;2024-01-25T09:02:46;19.70;51.20
84173;DHT22;74302;40.122;18.310;2024-01-25T09:04:29;19.70;51.30
84173;DHT22;74302;40.122;18.310;2024-01-25T09:06:13;19.50;51.30
84173;DHT22;74302;40.122;18.310;2024-01-25T09:07:57;19.40;51.30
84173;DHT22;74302;40.122;18.310;2024-01-25T09:09:42;19.40;51.40
84173;DHT22;74302;40.122;18.310;2024-01-25T09:11:26;19.20;51.40
84173;DHT22;74302;40.122;18.310;2024-01-25T09:13:10;19.20;51.50
84173;DHT22;74302;40.122;18.310;2024-01-25T09:14:55;19.20;51.60
84173;DHT22;74302;40.122;18.310;2024-01-25T09:16:39;19.10;51.60
84173;DHT22;74302;40.122;18.310;2024-01-25T09:18:23;19.00;51.70
84173;DHT22;74302;40.122;18.310;2024-01-25T09:20:08;19.00;51.70
84173;DHT22;74302;40.122;18.310;2024-01-25T09:21:53;19.00;51.70
84173;DHT22;74302;40.122;18.310;2024-01-25T09:23:39;18.90;51.70
84173;DHT22;74302;40.122;18.310;2024-01-25T09:25:23;18.90;51.80
84173;DHT22;74302;40.122;18.310;2024-01-25T09:27:08;18.80;51.80
84173;DHT22;74302;40.122;18.310;2024-01-25T09:28:52;18.80;51.90
84173;DHT22;74302;40.122;18.310;2024-01-25T09:30:36;18.80;51.90
84173;DHT22;74302;40.122;18.310;2024-01-25T09:32:19;18.70;51.90
84173;DHT22;74302;40.122;18.310;2024-01-25T09:34:04;18.70;51.90
84173;DHT22;74302;40.122;18.310;2024-01-25T09:35:49;18.60;52.00
84173;DHT22;74302;40.122;18.310;2024-01-25T09:37:32;18.60;52.10
84173;DHT22;74302;40.122;18.310;2024-01-25T09:39:16;18.60;52.10
84173;DHT22;74302;40.122;18.310;2024-01-25T09:41:01;18.50;52.10
84173;DHT22;74302;40.122;18.310;2024-01-25T09:42:46;18.40;52.00
84173;DHT22;74302;40.122;18.310;2024-01-25T09:44:31;18.30;52.10
84173;DHT22;74302;40.122;18.310;2024-01-25T09:46:16;18.30;52.20
84173;DHT22;74302;40.122;18.310;2024-01-25T09:47:59;18.20;52.20
84173;DHT22;74302;40.122;18.310;2024-01-25T09:49:47;18.20;52.20
84173;DHT22;74302;40.122;18.310;2024-01-25T09:51:36;18.20;52.20
84173;DHT22;74302;40.122;18.310;2024-01-25T09:53:22;18.20;52.20
84173;DHT22;74302;40.122;18.310;2024-01-25T09:55:07;18.20;52.20
84173;DHT22;74302;40.122;18.310;2024-01-25T09:56:52;18.20;52.10
84173;DHT22;74302;40.122;18.310;2024-01-25T09:58:40;18.20;52.10
84173;DHT22;74302;40.122;18.310;2024-01-25T10:00:24;18.20;52.00
84173;DHT22;74302;40.122;18.310;2024-01-25T10:02:09;18.20;52.00
84173;DHT22;74302;40.122;18.310;2024-01-25T10:03:53;18.20;52.00
84173;DHT22;74302;40.122;18.310;2024-01-25T10:05:39;18.20;52.00
84173;DHT22;74302;40.122;18.310;2024-01-25T10:07:38;18.20;51.90
84173;DHT22;74302;40.122;18.310;2024-01-25T10:09:23;18.20;51.80
84173;DHT22;74302;40.122;18.310;2024-01-25T10:11:07;18.20;51.80
84173;DHT22;74302;40.122;18.310;2024-01-25T10:12:55;18.20;51.70
84173;DHT22;74302;40.122;18.310;2024-01-25T10:14:40;18.20;51.70
84173;DHT22;74302;40.122;18.310;2024-01-25T10:16:24;18.20;51.60
84173;DHT22;74302;40.122;18.310;2024-01-25T10:18:08;18.20;51.60
84173;DHT22;74302;40.122;18.310;2024-01-25T10:19:56;18.20;51.50
84173;DHT22;74302;40.122;18.310;2024-01-25T10:21:41;18.20;51.50
84173;DHT22;74302;40.122;18.310;2024-01-25T10:23:28;18.20;51.40
84173;DHT22;74302;40.122;18.310;2024-01-25T10:25:12;18.20;51.40
84173;DHT22;74302;40.122;18.310;2024-01-25T10:26:57;18.20;51.40
84173;DHT22;74302;40.122;18.310;2024-01-25T10:28:43;18.20;51.40
84173;DHT22;74302;40.122;18.310;2024-01-25T10:30:36;18.10;51.30
84173;DHT22;74302;40.122;18.310;2024-01-25T10:32:20;18.20;51.30
84173;DHT22;74302;40.122;18.310;2024-01-25T10:34:04;18.20;51.20
84173;DHT22;74302;40.122;18.310;2024-01-25T10:35:48;18.20;51.30
84173;DHT22;74302;40.122;18.310;2024-01-25T10:37:34;18.10;51.20
84173;DHT22;74302;40.122;18.310;2024-01-25T10:39:17;18.20;51.20
84173;DHT22;74302;40.122;18.310;2024-01-25T10:41:04;18.20;51.20
84173;DHT22;74302;40.122;18.310;2024-01-25T10:42:48;18.20;51.10
84173;DHT22;74302;40.122;18.310;2024-01-25T10:44:32;18.20;51.10
84173;DHT22;74302;40.122;18.310;2024-01-25T10:46:17;18.20;51.00
84173;DHT22;74302;40.122;18.310;2024-01-25T10:48:01;18.20;51.00
84173;DHT22;74302;40.122;18.310;2024-01-25T10:49:47;18.20;51.00
84173;DHT22;74302;40.122;18.310;2024-01-25T10:51:31;18.20;50.90
84173;DHT22;74302;40.122;18.310;2024-01-25T10:53:16;18.20;50.90
84173;DHT22;74302;40.122;18.310;2024-01-25T10:55:00;18.20;50.90
84173;DHT22;74302;40.122;18.310;2024-01-25T10:56:46;18.20;50.90
84173;DHT22;74302;40.122;18.310;2024-01-25T10:58:30;18.20;50.90
84173;DHT22;74302;40.122;18.310;2024-01-25T11:00:16;18.20;50.80
84173;DHT22;74302;40.122;18.310;2024-01-25T11:02:02;18.20;50.80
84173;DHT22;74302;40.122;18.310;2024-01-25T11:03:47;18.20;50.80
84173;DHT22;74302;40.122;18.310;2024-01-25T11:05:30;18.20;50.70
84173;DHT22;74302;40.122;18.310;2024-01-25T11:07:15;18.20;50.70
84173;DHT22;74302;40.122;18.310;2024-01-25T11:09:05;18.20;50.70
84173;DHT22;74302;40.122;18.310;2024-01-25T11:10:51;18.20;50.80
84173;DHT22;74302;40.122;18.310;2024-01-25T11:12:36;18.30;50.70
84173;DHT22;74302;40.122;18.310;2024-01-25T11:14:29;18.20;50.70
84173;DHT22;74302;40.122;18.310;2024-01-25T11:16:15;18.20;50.60
84173;DHT22;74302;40.122;18.310;2024-01-25T11:18:01;18.20;50.60
84173;DHT22;74302;40.122;18.310;2024-01-25T11:19:48;18.20;50.60
84173;DHT22;74302;40.122;18.310;2024-01-25T11:21:39;18.20;50.60
84173;DHT22;74302;40.122;18.310;2024-01-25T11:23:31;18.20;50.60
84173;DHT22;74302;40.122;18.310;2024-01-25T11:25:19;18.20;50.60
84173;DHT22;74302;40.122;18.310;2024-01-25T11:27:04;18.20;50.60
84173;DHT22;74302;40.122;18.310;2024-01-25T11:28:48;18.20;50.60
84173;DHT22;74302;40.122;18.310;2024-01-25T11:30:34;18.20;50.70
84173;DHT22;74302;40.122;18.310;2024-01-25T11:32:18;18.20;50.60
84173;DHT22;74302;40.122;18.310;2024-01-25T11:34:03;18.10;50.70